sensor_id;sensor_type;location;lat;lon;timestamp;pressure;altitude;pressure_sealevel;temperature;humidity
55755;BME280;41674;52.290;-1.474;2022-09-09T08:08:11;99902.91;;;26.34;49.93
55755;BME280;41674;52.290;-1.474;2022-09-09T08:10:42;99898.57;;;25.68;50.98
55755;BME280;41674;52.290;-1.474;2022-09-09T08:13:14;99898.02;;;25.43;51.81
55755;BME280;41674;52.290;-1.474;2022-09-09T08:15:45;99896.29;;;25.50;51.80
55755;BME280;41674;52.290;-1.474;2022-09-09T08:18:16;99895.71;;;25.52;52.12
55755;BME280;41674;52.290;-1.474;2022-09-09T08:20:47;99898.75;;;25.74;52.20
55755;BME280;41674;52.290;-1.474;2022-09-09T08:23:23;99897.92;;;25.92;52.42
55755;BME280;41674;52.290;-1.474;2022-09-09T09:19:58;99987.33;;;24.13;62.19
55755;BME280;41674;52.290;-1.474;2022-09-09T09:22:36;99989.14;;;25.41;58.08
55755;BME280;41674;52.290;-1.474;2022-09-09T09:25:18;99989.85;;;25.88;55.49
55755;BME280;41674;52.290;-1.474;2022-09-09T09:27:52;99992.73;;;26.71;53.64
55755;BME280;41674;52.290;-1.474;2022-09-09T09:30:28;99993.56;;;26.52;52.89
55755;BME280;41674;52.290;-1.474;2022-09-09T09:40:30;100003.42;;;26.73;49.92
55755;BME280;41674;52.290;-1.474;2022-09-09T09:43:02;100004.80;;;26.67;50.02
55755;BME280;41674;52.290;-1.474;2022-09-09T09:45:41;100003.57;;;26.76;49.79
55755;BME280;41674;52.290;-1.474;2022-09-09T09:48:13;100002.00;;;27.15;49.54
55755;BME280;41674;52.290;-1.474;2022-09-09T09:50:50;100001.02;;;27.02;49.77
55755;BME280;41674;52.290;-1.474;2022-09-09T09:53:26;100003.75;;;26.93;50.01
55755;BME280;41674;52.290;-1.474;2022-09-09T09:55:59;100007.86;;;26.70;50.30
55755;BME280;41674;52.290;-1.474;2022-09-09T09:58:33;100012.67;;;26.75;50.25
55755;BME280;41674;52.290;-1.474;2022-09-09T10:01:21;100008.88;;;26.94;50.41
55755;BME280;41674;52.290;-1.474;2022-09-09T10:03:55;100010.48;;;26.82;50.14
55755;BME280;41674;52.290;-1.474;2022-09-09T10:06:32;100010.52;;;27.25;49.93
55755;BME280;41674;52.290;-1.474;2022-09-09T10:09:22;100015.06;;;27.17;49.81
55755;BME280;41674;52.290;-1.474;2022-09-09T10:12:00;100015.66;;;27.25;49.77
55755;BME280;41674;52.290;-1.474;2022-09-09T10:14:43;100019.90;;;27.10;49.90
55755;BME280;41674;52.290;-1.474;2022-09-09T10:17:23;100017.69;;;27.02;50.22
55755;BME280;41674;52.290;-1.474;2022-09-09T10:20:37;100018.28;;;26.84;50.48
55755;BME280;41674;52.290;-1.474;2022-09-09T10:23:29;100017.20;;;26.74;50.73
55755;BME280;41674;52.290;-1.474;2022-09-09T10:26:26;100018.39;;;26.73;50.73
55755;BME280;41674;52.290;-1.474;2022-09-09T10:29:26;100017.17;;;26.77;50.71
55755;BME280;41674;52.290;-1.474;2022-09-09T10:32:36;100018.74;;;26.71;50.58
55755;BME280;41674;52.290;-1.474;2022-09-09T10:35:19;100027.26;;;26.41;50.87
55755;BME280;41674;52.290;-1.474;2022-09-09T10:38:17;100037.36;;;25.95;51.31
55755;BME280;41674;52.290;-1.474;2022-09-09T10:41:09;100037.82;;;26.21;51.42
55755;BME280;41674;52.290;-1.474;2022-09-09T10:44:22;100041.65;;;26.83;50.17
55755;BME280;41674;52.290;-1.474;2022-09-09T10:47:20;100040.04;;;27.21;49.99
55755;BME280;41674;52.290;-1.474;2022-09-09T10:50:11;100041.35;;;27.28;50.48
55755;BME280;41674;52.290;-1.474;2022-09-09T10:52:53;100042.27;;;26.90;51.42
55755;BME280;41674;52.290;-1.474;2022-09-09T10:55:40;100042.89;;;26.88;51.73
55755;BME280;41674;52.290;-1.474;2022-09-09T10:58:22;100043.83;;;26.45;51.59
55755;BME280;41674;52.290;-1.474;2022-09-09T11:01:28;100042.37;;;26.73;52.07
55755;BME280;41674;52.290;-1.474;2022-09-09T11:04:17;100045.03;;;26.96;51.93
55755;BME280;41674;52.290;-1.474;2022-09-09T11:06:54;100043.23;;;26.46;51.75
55755;BME280;41674;52.290;-1.474;2022-09-09T11:09:40;100042.47;;;26.38;51.82
55755;BME280;41674;52.290;-1.474;2022-09-09T11:12:27;100040.46;;;26.38;51.63
55755;BME280;41674;52.290;-1.474;2022-09-09T11:15:05;100040.89;;;26.60;51.23
55755;BME280;41674;52.290;-1.474;2022-09-09T11:17:42;100041.33;;;26.66;51.21
55755;BME280;41674;52.290;-1.474;2022-09-09T11:20:15;100041.12;;;26.61;51.18
55755;BME280;41674;52.290;-1.474;2022-09-09T11:22:50;100040.18;;;26.75;51.27
55755;BME280;41674;52.290;-1.474;2022-09-09T11:25:26;100040.43;;;26.60;51.39
55755;BME280;41674;52.290;-1.474;2022-09-09T11:28:21;100051.08;;;26.39;51.86
55755;BME280;41674;52.290;-1.474;2022-09-09T13:33:38;100097.92;;;26.88;49.35
55755;BME280;41674;52.290;-1.474;2022-09-09T13:36:11;100095.11;;;26.88;49.47
55755;BME280;41674;52.290;-1.474;2022-09-09T14:05:43;100111.84;;;25.74;56.65
55755;BME280;41674;52.290;-1.474;2022-09-09T14:08:24;100108.34;;;26.77;53.61
55755;BME280;41674;52.290;-1.474;2022-09-09T14:11:00;100107.65;;;26.66;53.28
55755;BME280;41674;52.290;-1.474;2022-09-09T14:13:33;100107.49;;;26.81;53.00
55755;BME280;41674;52.290;-1.474;2022-09-09T14:16:04;100108.45;;;26.59;51.60
55755;BME280;41674;52.290;-1.474;2022-09-09T14:18:35;100108.43;;;26.33;51.91
55755;BME280;41674;52.290;-1.474;2022-09-09T14:21:07;100110.77;;;26.30;52.78
55755;BME280;41674;52.290;-1.474;2022-09-09T14:23:38;100109.31;;;26.82;52.59
55755;BME280;41674;52.290;-1.474;2022-09-09T14:26:09;100107.76;;;26.52;52.22
55755;BME280;41674;52.290;-1.474;2022-09-09T14:28:41;100108.83;;;26.49;52.01
55755;BME280;41674;52.290;-1.474;2022-09-09T14:31:12;100112.29;;;26.41;52.00
55755;BME280;41674;52.290;-1.474;2022-09-09T14:33:44;100113.43;;;26.67;52.39
55755;BME280;41674;52.290;-1.474;2022-09-09T14:36:16;100115.96;;;26.45;52.71
55755;BME280;41674;52.290;-1.474;2022-09-09T14:38:47;100118.41;;;26.47;53.06
55755;BME280;41674;52.290;-1.474;2022-09-09T14:41:19;100129.59;;;26.22;52.28
55755;BME280;41674;52.290;-1.474;2022-09-09T14:43:51;100129.78;;;26.65;52.50
55755;BME280;41674;52.290;-1.474;2022-09-09T14:46:22;100132.96;;;26.33;52.68
55755;BME280;41674;52.290;-1.474;2022-09-09T14:48:54;100133.34;;;26.29;52.63
55755;BME280;41674;52.290;-1.474;2022-09-09T14:51:26;100132.96;;;26.24;52.83
55755;BME280;41674;52.290;-1.474;2022-09-09T14:54:05;100133.36;;;26.29;52.67
55755;BME280;41674;52.290;-1.474;2022-09-09T14:56:37;100132.18;;;26.20;52.33
55755;BME280;41674;52.290;-1.474;2022-09-09T14:59:08;100134.80;;;26.46;53.05
55755;BME280;41674;52.290;-1.474;2022-09-09T15:01:39;100139.22;;;26.04;52.38
55755;BME280;41674;52.290;-1.474;2022-09-09T15:04:12;100140.79;;;26.37;52.56
55755;BME280;41674;52.290;-1.474;2022-09-09T15:06:43;100141.14;;;26.43;53.02
55755;BME280;41674;52.290;-1.474;2022-09-09T15:09:15;100141.31;;;26.41;52.64
55755;BME280;41674;52.290;-1.474;2022-09-09T15:11:47;100141.73;;;26.10;53.40
55755;BME280;41674;52.290;-1.474;2022-09-09T15:14:23;100144.24;;;26.26;53.12
55755;BME280;41674;52.290;-1.474;2022-09-09T15:16:54;100144.38;;;25.88;54.05
55755;BME280;41674;52.290;-1.474;2022-09-09T15:19:31;100145.57;;;26.59;53.61
55755;BME280;41674;52.290;-1.474;2022-09-09T15:22:07;100140.61;;;26.10;55.25
55755;BME280;41674;52.290;-1.474;2022-09-09T15:24:44;100143.68;;;26.42;54.08
55755;BME280;41674;52.290;-1.474;2022-09-09T15:27:21;100146.97;;;26.25;53.95
55755;BME280;41674;52.290;-1.474;2022-09-09T15:29:52;100148.49;;;26.20;54.62
55755;BME280;41674;52.290;-1.474;2022-09-09T15:32:28;100148.31;;;25.98;54.44
55755;BME280;41674;52.290;-1.474;2022-09-09T15:35:00;100150.94;;;25.91;54.57
55755;BME280;41674;52.290;-1.474;2022-09-09T15:37:31;100152.75;;;25.86;54.01
55755;BME280;41674;52.290;-1.474;2022-09-09T15:40:03;100149.89;;;25.51;53.91
55755;BME280;41674;52.290;-1.474;2022-09-09T15:42:39;100151.44;;;25.45;54.26
55755;BME280;41674;52.290;-1.474;2022-09-09T15:45:16;100151.82;;;25.31;55.11
55755;BME280;41674;52.290;-1.474;2022-09-09T15:47:53;100163.93;;;25.19;55.52
55755;BME280;41674;52.290;-1.474;2022-09-09T15:50:29;100180.23;;;25.12;55.51
55755;BME280;41674;52.290;-1.474;2022-09-09T15:53:00;100185.17;;;24.80;56.18
55755;BME280;41674;52.290;-1.474;2022-09-09T15:55:41;100197.81;;;24.91;56.07
55755;BME280;41674;52.290;-1.474;2022-09-09T15:58:18;100206.28;;;24.84;56.01
55755;BME280;41674;52.290;-1.474;2022-09-09T16:00:55;100218.88;;;24.69;56.27
55755;BME280;41674;52.290;-1.474;2022-09-09T16:43:02;100249.00;;;25.97;54.37
